x

Hi-a389 Tabs V (42047) Weather Station

3:00am - Sun 2nd Aug 2015 All times are CDT. -5 hours from GMT.

  • Wind
    9mph, 11mph gusts
  • Sea Temp 86°f
  • Sea Pressure 1011.9mb
  • Hi-a389 Tabs V
  • Hi-a389 Tabs V

More Historic Weather Station data

Upgrade to MSW Pro to gain access to the past 30 days of data for over 8000 Wavebouys and Weather Stations around the globe.

Join Pro

Comparision Forecast

View Surf forecast
   
Sun 08/02 3:00am 9 11 mph 1011.9mb 86f
1:00am 7 9 mph 1012.6mb 87f
12:00am 9 11 mph 1012.9mb 87f
Sat 08/01 11:00pm 9 13 mph 1013mb 87f
5:00pm 2 4 mph 1012.2mb 86f
4:00pm 2 4 mph 1012.6mb 86f
3:00pm 4 7 mph 1013.2mb 86f
2:00pm 7
mph
1013mb 86f
1:00pm 7
mph
1013.3mb 86f
11:00am 7 9 mph 1014.2mb 86f
9:00am 16 18 mph 1013.6mb 86f
8:00am 7 9 mph 1013.4mb 86f
6:00am 16 20 mph 1011.8mb 86f
5:00am 9 11 mph 1011.9mb 86f
4:00am 11 13 mph 1011.8mb 86f
3:00am 9 11 mph 1012.4mb 86f
2:00am 13
mph
1013.1mb 86f
1:00am 11 13 mph 1013.3mb 86f
12:00am 11 13 mph 1014.1mb 86f
Fri 07/31 11:00pm 9 11 mph 1014.6mb 86f
5:00pm 9 20 mph 1013.8mb 87f
4:00pm 13 16 mph 1013.2mb 86f
3:00pm 13 16 mph 1013.9mb 86f
2:00pm 13 16 mph 1014.2mb 86f
1:00pm 13 16 mph 1014.7mb 86f
12:00pm 11 13 mph 1015.6mb 86f
11:00am 16 18 mph 1015.6mb 85f
10:00am 16 18 mph 1015.4mb 85f
9:00am 13 18 mph 1015.5mb 85f
8:00am 13 16 mph 1015.3mb 85f
7:00am 11 13 mph 1015.5mb 86f
6:00am 9 11 mph 1015.3mb 86f
5:00am 7 9 mph 1015.3mb 86f
1:00am 7 9 mph 1016.1mb 87f
12:00am 16 20 mph 1017.2mb 87f
Thu 07/30 11:00pm 25 29 mph 1017.7mb 87f
6:00pm 11 13 mph 1015.4mb 87f
4:00pm 9 11 mph 1015.7mb 87f
2:00pm 4 7 mph 1017.9mb 87f
1:00pm 9 11 mph 1018mb 87f
12:00pm 18 22 mph 1019.5mb 87f
11:00am 11
mph
1017.9mb 87f
10:00am 9 11 mph 1017.7mb 87f
9:00am 9
mph
1017.5mb 87f
Wed 07/29 12:00pm 4 7 mph 1018.2mb 87f